メインページ
METAR-TAF:

METAR-TAF

空港 :

台北, 台湾

台湾桃園国際空港

緯度: 25-05N, 経度: 121-13E, 海抜: 33m

現時点の気象観測

当レポートは35分前の12:30(UTC)に作成
東/北東の風 14kt
気温 18°C
湿度 77%
気圧 1022 hPa
視程10km以上
高度1500ftの雲はほとんどない
高度3500ftの千切れ雲あり
高度6000ftの千切れ雲あり

METAR: RCTP 241230Z 06014KT 9999 FEW015 BKN035 BKN060 18/14 Q1022 NOSIG RMK A3020

時間: 21:05 (13:05 UTC)

予報

当レポートは2時間5分前の11:00(UTC)に作成
予報は24日の 12時(UTC)から 25日の 18時(UTC)まで有効
北東の風 18kt
視程: 8000m
高度1200ftの雲はほとんどない
高度3200ftの千切れ雲あり
高度6000ftの千切れ雲あり
24日の 14時(UTC)から 24日の 16時(UTC)まで徐々に
高度1000ftの雲はほとんどない
高度2200ftの千切れ雲あり
高度5000ftの千切れ雲あり
24日の 20時(UTC)から 25日の 02時(UTC)まで一時的に
東/北東の風 12kt
視程: 5000m
高度800ftの雲は散在している
高度1600ftの千切れ雲あり
高度4000ftの千切れ雲あり
25日の 06時(UTC)から 25日の 12時(UTC)まで一時的に
視程: 5000m
高度800ftの雲は散在している
高度1600ftの千切れ雲あり
高度4000ftの千切れ雲あり
にわか雨
25日の 12時(UTC)から 25日の 14時(UTC)まで徐々に
の風 10kt
高度800ftの雲は散在している
高度1600ftの千切れ雲あり
高度4000ftの千切れ雲あり

TAF: RCTP 241100Z 2412/2518 05018KT 8000 FEW012 BKN032 BKN060 BECMG 2414/2416 FEW010 BKN022 BKN050 TEMPO 2420/2502 07012KT 5000 RA SCT008 BKN016 BKN040 TEMPO 2506/2512 5000 SHRA SCT008 BKN016 BKN040 BECMG 2512/2514 09010KT SCT008 BKN016 BKN040

4,000以上の空港の気象観測と天気予報(METAR報とTAF報)

利用可能な観測所は地図上に黄色い丸と赤い丸で示す。

丸の上にカーソルを重ねると観測所名を参照できる。

次にクリックすると気象観測と天気予報を参照できる。

マップの切り替え:黒色「×」印の緑ボタンをクリックして拡大、「-」印の緑ボタンをクリックして縮小、緑色の三角印をクリックして隣りの地図に切り替え


METAR-TAF: